sensor_id;sensor_type;location;lat;lon;timestamp;temperature;humidity
56436;DHT22;42335;44.872;20.658;2023-02-28T00:01:24;77.10;2227.20
56436;DHT22;42335;44.872;20.658;2023-02-28T00:03:50;77.10;2227.20
56436;DHT22;42335;44.872;20.658;2023-02-28T00:06:16;77.00;2227.20
56436;DHT22;42335;44.872;20.658;2023-02-28T00:08:42;77.10;2227.20
56436;DHT22;42335;44.872;20.658;2023-02-28T00:11:11;77.10;2227.20
56436;DHT22;42335;44.872;20.658;2023-02-28T00:13:40;77.10;2227.20
56436;DHT22;42335;44.872;20.658;2023-02-28T00:16:12;77.10;2227.20
56436;DHT22;42335;44.872;20.658;2023-02-28T00:18:39;77.10;2227.20
56436;DHT22;42335;44.872;20.658;2023-02-28T00:21:23;77.00;2227.20
56436;DHT22;42335;44.872;20.658;2023-02-28T00:23:49;77.00;2227.20
56436;DHT22;42335;44.872;20.658;2023-02-28T00:26:15;77.00;2227.20
56436;DHT22;42335;44.872;20.658;2023-02-28T00:28:41;77.10;2227.20
56436;DHT22;42335;44.872;20.658;2023-02-28T00:31:06;77.00;2227.20
56436;DHT22;42335;44.872;20.658;2023-02-28T00:33:32;77.10;2227.20
56436;DHT22;42335;44.872;20.658;2023-02-28T00:36:10;77.20;2227.20
56436;DHT22;42335;44.872;20.658;2023-02-28T00:38:36;77.20;2227.20
56436;DHT22;42335;44.872;20.658;2023-02-28T00:41:02;77.10;2227.20
56436;DHT22;42335;44.872;20.658;2023-02-28T00:43:31;77.00;2227.20
56436;DHT22;42335;44.872;20.658;2023-02-28T00:45:57;77.00;2227.20
56436;DHT22;42335;44.872;20.658;2023-02-28T00:48:22;76.90;2227.20
56436;DHT22;42335;44.872;20.658;2023-02-28T00:50:49;77.00;2227.20
56436;DHT22;42335;44.872;20.658;2023-02-28T00:53:15;77.10;2227.20
56436;DHT22;42335;44.872;20.658;2023-02-28T00:55:41;77.10;2227.20
56436;DHT22;42335;44.872;20.658;2023-02-28T00:58:06;77.20;2227.20
56436;DHT22;42335;44.872;20.658;2023-02-28T01:00:32;77.10;2227.20
56436;DHT22;42335;44.872;20.658;2023-02-28T01:02:58;77.20;2227.20
56436;DHT22;42335;44.872;20.658;2023-02-28T01:05:24;77.00;2227.20
56436;DHT22;42335;44.872;20.658;2023-02-28T01:07:49;77.10;2227.20
56436;DHT22;42335;44.872;20.658;2023-02-28T01:10:15;77.00;2227.20
56436;DHT22;42335;44.872;20.658;2023-02-28T01:12:41;77.10;2227.20
56436;DHT22;42335;44.872;20.658;2023-02-28T01:15:09;77.10;2227.20
56436;DHT22;42335;44.872;20.658;2023-02-28T01:17:36;77.10;2227.20
56436;DHT22;42335;44.872;20.658;2023-02-28T01:20:01;77.10;2227.20
56436;DHT22;42335;44.872;20.658;2023-02-28T01:22:27;77.10;2227.20
56436;DHT22;42335;44.872;20.658;2023-02-28T01:24:53;77.00;2227.20
56436;DHT22;42335;44.872;20.658;2023-02-28T01:27:19;77.00;2227.20
56436;DHT22;42335;44.872;20.658;2023-02-28T01:29:45;77.00;2227.20
56436;DHT22;42335;44.872;20.658;2023-02-28T01:32:11;77.00;2227.20
56436;DHT22;42335;44.872;20.658;2023-02-28T01:34:36;77.00;2227.20
56436;DHT22;42335;44.872;20.658;2023-02-28T01:37:03;77.00;2227.20
56436;DHT22;42335;44.872;20.658;2023-02-28T01:39:29;76.90;2227.20
56436;DHT22;42335;44.872;20.658;2023-02-28T01:41:55;76.80;2227.20
56436;DHT22;42335;44.872;20.658;2023-02-28T01:47:36;76.80;2227.20
56436;DHT22;42335;44.872;20.658;2023-02-28T01:50:07;76.90;2227.20
56436;DHT22;42335;44.872;20.658;2023-02-28T01:52:34;76.80;2227.20
56436;DHT22;42335;44.872;20.658;2023-02-28T01:55:02;52.10;2227.20
56436;DHT22;42335;44.872;20.658;2023-02-28T01:57:34;76.90;2227.20
56436;DHT22;42335;44.872;20.658;2023-02-28T02:00:08;76.80;2227.20
56436;DHT22;42335;44.872;20.658;2023-02-28T02:02:36;76.80;2227.20
56436;DHT22;42335;44.872;20.658;2023-02-28T02:05:09;76.90;2227.20
56436;DHT22;42335;44.872;20.658;2023-02-28T02:07:38;76.90;2227.20
56436;DHT22;42335;44.872;20.658;2023-02-28T02:15:20;77.00;2227.20
56436;DHT22;42335;44.872;20.658;2023-02-28T02:17:52;77.10;2227.20
56436;DHT22;42335;44.872;20.658;2023-02-28T02:31:46;76.90;2227.20
56436;DHT22;42335;44.872;20.658;2023-02-28T02:34:37;76.90;2227.20
56436;DHT22;42335;44.872;20.658;2023-02-28T02:48:15;77.00;2227.20
56436;DHT22;42335;44.872;20.658;2023-02-28T02:50:54;77.00;2227.20
56436;DHT22;42335;44.872;20.658;2023-02-28T02:53:33;77.00;2227.20
56436;DHT22;42335;44.872;20.658;2023-02-28T02:56:01;76.90;2227.20
56436;DHT22;42335;44.872;20.658;2023-02-28T02:58:32;76.90;2227.20
56436;DHT22;42335;44.872;20.658;2023-02-28T03:01:01;76.90;2227.20
56436;DHT22;42335;44.872;20.658;2023-02-28T03:03:29;77.00;2227.20
56436;DHT22;42335;44.872;20.658;2023-02-28T03:05:59;76.90;2227.20
56436;DHT22;42335;44.872;20.658;2023-02-28T03:08:27;77.00;2227.20
56436;DHT22;42335;44.872;20.658;2023-02-28T03:11:12;77.00;2227.20
56436;DHT22;42335;44.872;20.658;2023-02-28T03:21:46;77.10;2227.20
56436;DHT22;42335;44.872;20.658;2023-02-28T03:24:24;77.00;2227.20
56436;DHT22;42335;44.872;20.658;2023-02-28T03:26:58;77.00;2227.20
56436;DHT22;42335;44.872;20.658;2023-02-28T03:29:43;77.00;2227.20
56436;DHT22;42335;44.872;20.658;2023-02-28T03:32:24;77.10;2227.20
56436;DHT22;42335;44.872;20.658;2023-02-28T03:35:11;77.10;2227.20
56436;DHT22;42335;44.872;20.658;2023-02-28T03:37:42;77.20;2227.20
56436;DHT22;42335;44.872;20.658;2023-02-28T03:40:17;77.20;2227.20
56436;DHT22;42335;44.872;20.658;2023-02-28T03:42:48;77.20;2227.20
56436;DHT22;42335;44.872;20.658;2023-02-28T03:45:25;77.10;2227.20
56436;DHT22;42335;44.872;20.658;2023-02-28T03:48:05;77.20;2227.20
56436;DHT22;42335;44.872;20.658;2023-02-28T03:50:39;77.10;2227.20
56436;DHT22;42335;44.872;20.658;2023-02-28T03:55:37;77.00;2227.20
56436;DHT22;42335;44.872;20.658;2023-02-28T04:01:05;76.90;2227.20
56436;DHT22;42335;44.872;20.658;2023-02-28T04:03:36;77.00;2227.20
56436;DHT22;42335;44.872;20.658;2023-02-28T04:06:03;77.00;2227.20
56436;DHT22;42335;44.872;20.658;2023-02-28T04:08:29;76.90;2227.20
56436;DHT22;42335;44.872;20.658;2023-02-28T04:11:08;76.90;2227.20
56436;DHT22;42335;44.872;20.658;2023-02-28T04:13:38;77.00;2227.20
56436;DHT22;42335;44.872;20.658;2023-02-28T04:16:07;77.00;2227.20
56436;DHT22;42335;44.872;20.658;2023-02-28T04:18:40;77.00;2227.20
56436;DHT22;42335;44.872;20.658;2023-02-28T04:21:08;77.00;2227.20
56436;DHT22;42335;44.872;20.658;2023-02-28T04:23:34;77.00;2227.20
56436;DHT22;42335;44.872;20.658;2023-02-28T04:26:00;77.00;2227.20
56436;DHT22;42335;44.872;20.658;2023-02-28T04:28:26;77.10;2227.20
56436;DHT22;42335;44.872;20.658;2023-02-28T04:31:01;77.00;2227.20
56436;DHT22;42335;44.872;20.658;2023-02-28T04:33:27;77.00;2227.20
56436;DHT22;42335;44.872;20.658;2023-02-28T04:36:07;76.90;2227.20
56436;DHT22;42335;44.872;20.658;2023-02-28T04:38:36;77.00;2227.20
56436;DHT22;42335;44.872;20.658;2023-02-28T04:41:03;77.00;2227.20
56436;DHT22;42335;44.872;20.658;2023-02-28T04:43:29;77.00;2227.20
56436;DHT22;42335;44.872;20.658;2023-02-28T04:45:57;77.00;2227.20
56436;DHT22;42335;44.872;20.658;2023-02-28T04:48:30;77.00;2227.20
56436;DHT22;42335;44.872;20.658;2023-02-28T04:51:01;77.00;2227.20
56436;DHT22;42335;44.872;20.658;2023-02-28T04:53:28;77.00;2227.20
56436;DHT22;42335;44.872;20.658;2023-02-28T04:55:54;76.90;2227.20
56436;DHT22;42335;44.872;20.658;2023-02-28T04:58:20;76.90;2227.20
56436;DHT22;42335;44.872;20.658;2023-02-28T05:00:52;76.90;2227.20
56436;DHT22;42335;44.872;20.658;2023-02-28T05:03:18;77.00;2227.20
56436;DHT22;42335;44.872;20.658;2023-02-28T05:05:46;76.80;2227.20
56436;DHT22;42335;44.872;20.658;2023-02-28T05:08:12;76.90;2227.20
56436;DHT22;42335;44.872;20.658;2023-02-28T05:10:37;77.00;2227.20
56436;DHT22;42335;44.872;20.658;2023-02-28T05:13:03;77.10;2227.20
56436;DHT22;42335;44.872;20.658;2023-02-28T05:15:29;77.00;2227.20
56436;DHT22;42335;44.872;20.658;2023-02-28T05:17:55;77.10;2227.20
56436;DHT22;42335;44.872;20.658;2023-02-28T05:20:21;77.00;2227.20
56436;DHT22;42335;44.872;20.658;2023-02-28T05:22:47;77.00;2227.20
56436;DHT22;42335;44.872;20.658;2023-02-28T05:25:18;77.10;2227.20
56436;DHT22;42335;44.872;20.658;2023-02-28T05:27:44;77.00;2227.20
56436;DHT22;42335;44.872;20.658;2023-02-28T05:30:10;76.90;2227.20
56436;DHT22;42335;44.872;20.658;2023-02-28T05:32:38;76.90;2227.20
56436;DHT22;42335;44.872;20.658;2023-02-28T05:35:04;77.10;2227.20
56436;DHT22;42335;44.872;20.658;2023-02-28T05:37:30;77.10;2227.20
56436;DHT22;42335;44.872;20.658;2023-02-28T05:39:56;77.10;2227.20
56436;DHT22;42335;44.872;20.658;2023-02-28T05:42:21;77.10;2227.20
56436;DHT22;42335;44.872;20.658;2023-02-28T05:44:47;77.20;2227.20
56436;DHT22;42335;44.872;20.658;2023-02-28T05:47:13;77.20;2227.20
56436;DHT22;42335;44.872;20.658;2023-02-28T05:49:41;77.20;2227.20
56436;DHT22;42335;44.872;20.658;2023-02-28T05:52:07;77.10;2227.20
56436;DHT22;42335;44.872;20.658;2023-02-28T05:54:33;77.00;2227.20
56436;DHT22;42335;44.872;20.658;2023-02-28T05:56:59;77.00;2227.20
56436;DHT22;42335;44.872;20.658;2023-02-28T05:59:25;76.90;2227.20
56436;DHT22;42335;44.872;20.658;2023-02-28T06:01:50;76.90;2227.20
56436;DHT22;42335;44.872;20.658;2023-02-28T06:04:19;77.00;2227.20
56436;DHT22;42335;44.872;20.658;2023-02-28T06:06:46;77.00;2227.20
56436;DHT22;42335;44.872;20.658;2023-02-28T06:09:12;77.00;2227.20
56436;DHT22;42335;44.872;20.658;2023-02-28T06:11:39;77.00;2227.20
56436;DHT22;42335;44.872;20.658;2023-02-28T06:14:05;76.90;2227.20
56436;DHT22;42335;44.872;20.658;2023-02-28T06:16:33;77.00;2227.20
56436;DHT22;42335;44.872;20.658;2023-02-28T06:19:02;77.10;2227.20
56436;DHT22;42335;44.872;20.658;2023-02-28T06:21:29;77.20;2227.20
56436;DHT22;42335;44.872;20.658;2023-02-28T06:23:55;77.10;2227.20
56436;DHT22;42335;44.872;20.658;2023-02-28T06:26:21;77.30;2227.20
56436;DHT22;42335;44.872;20.658;2023-02-28T06:28:47;77.30;2227.20
56436;DHT22;42335;44.872;20.658;2023-02-28T06:31:15;77.30;2227.20
56436;DHT22;42335;44.872;20.658;2023-02-28T06:33:42;77.60;2227.20
56436;DHT22;42335;44.872;20.658;2023-02-28T06:36:09;77.40;2227.20
56436;DHT22;42335;44.872;20.658;2023-02-28T06:38:35;77.60;2227.20
56436;DHT22;42335;44.872;20.658;2023-02-28T06:41:02;77.40;2227.20
56436;DHT22;42335;44.872;20.658;2023-02-28T06:43:30;77.40;2227.20
56436;DHT22;42335;44.872;20.658;2023-02-28T06:45:58;77.40;2227.20
56436;DHT22;42335;44.872;20.658;2023-02-28T06:48:26;77.30;2227.20
56436;DHT22;42335;44.872;20.658;2023-02-28T06:51:00;77.20;2227.20
56436;DHT22;42335;44.872;20.658;2023-02-28T06:53:26;77.30;2227.20
56436;DHT22;42335;44.872;20.658;2023-02-28T06:55:51;77.30;2227.20
56436;DHT22;42335;44.872;20.658;2023-02-28T06:58:17;77.40;2227.20
56436;DHT22;42335;44.872;20.658;2023-02-28T07:00:45;77.40;2227.20
56436;DHT22;42335;44.872;20.658;2023-02-28T07:03:13;77.40;2227.20
56436;DHT22;42335;44.872;20.658;2023-02-28T07:05:40;77.30;2227.20
56436;DHT22;42335;44.872;20.658;2023-02-28T07:08:06;77.30;2227.20
56436;DHT22;42335;44.872;20.658;2023-02-28T07:10:34;77.30;2227.20
56436;DHT22;42335;44.872;20.658;2023-02-28T07:13:00;77.40;2227.20
56436;DHT22;42335;44.872;20.658;2023-02-28T07:15:26;77.40;2227.20
56436;DHT22;42335;44.872;20.658;2023-02-28T07:17:52;77.30;2227.20
56436;DHT22;42335;44.872;20.658;2023-02-28T07:20:17;77.40;2227.20
56436;DHT22;42335;44.872;20.658;2023-02-28T07:22:43;77.40;2227.20
56436;DHT22;42335;44.872;20.658;2023-02-28T07:25:09;77.40;2227.20
56436;DHT22;42335;44.872;20.658;2023-02-28T07:27:35;77.30;2227.20
56436;DHT22;42335;44.872;20.658;2023-02-28T07:30:00;77.40;2227.20
56436;DHT22;42335;44.872;20.658;2023-02-28T07:32:27;77.30;2227.20
56436;DHT22;42335;44.872;20.658;2023-02-28T07:34:53;77.40;2227.20
56436;DHT22;42335;44.872;20.658;2023-02-28T07:37:19;77.40;2227.20
56436;DHT22;42335;44.872;20.658;2023-02-28T07:39:45;77.40;2227.20
56436;DHT22;42335;44.872;20.658;2023-02-28T07:42:11;77.50;2227.20
56436;DHT22;42335;44.872;20.658;2023-02-28T07:54:33;102.60;2227.20
56436;DHT22;42335;44.872;20.658;2023-02-28T07:56:59;102.50;2227.20
56436;DHT22;42335;44.872;20.658;2023-02-28T07:59:25;102.40;2227.20
56436;DHT22;42335;44.872;20.658;2023-02-28T08:01:51;102.40;2227.20
56436;DHT22;42335;44.872;20.658;2023-02-28T08:04:18;77.70;2227.20
56436;DHT22;42335;44.872;20.658;2023-02-28T08:06:46;102.40;2227.20
56436;DHT22;42335;44.872;20.658;2023-02-28T08:09:11;77.70;2227.20
56436;DHT22;42335;44.872;20.658;2023-02-28T08:11:37;102.40;2227.20
56436;DHT22;42335;44.872;20.658;2023-02-28T08:14:03;77.70;2227.20
56436;DHT22;42335;44.872;20.658;2023-02-28T08:16:28;77.70;2227.20
56436;DHT22;42335;44.872;20.658;2023-02-28T08:18:54;77.70;2227.20
56436;DHT22;42335;44.872;20.658;2023-02-28T08:21:20;102.40;2227.20
56436;DHT22;42335;44.872;20.658;2023-02-28T08:23:48;102.40;2227.20
56436;DHT22;42335;44.872;20.658;2023-02-28T08:26:16;102.40;2227.20
56436;DHT22;42335;44.872;20.658;2023-02-28T08:28:42;102.50;2227.20
56436;DHT22;42335;44.872;20.658;2023-02-28T08:31:09;102.50;2227.20
56436;DHT22;42335;44.872;20.658;2023-02-28T08:33:36;102.40;2227.20
56436;DHT22;42335;44.872;20.658;2023-02-28T08:36:02;102.50;2227.20
56436;DHT22;42335;44.872;20.658;2023-02-28T08:38:29;102.50;2227.20
56436;DHT22;42335;44.872;20.658;2023-02-28T08:41:03;102.60;2227.20
56436;DHT22;42335;44.872;20.658;2023-02-28T08:43:31;102.50;2227.20
56436;DHT22;42335;44.872;20.658;2023-02-28T08:45:57;102.50;2227.20
56436;DHT22;42335;44.872;20.658;2023-02-28T08:48:23;102.50;2227.20
56436;DHT22;42335;44.872;20.658;2023-02-28T08:51:00;102.40;2227.20
56436;DHT22;42335;44.872;20.658;2023-02-28T08:53:26;102.50;2227.20
56436;DHT22;42335;44.872;20.658;2023-02-28T08:56:00;102.60;2227.20
56436;DHT22;42335;44.872;20.658;2023-02-28T08:58:26;102.60;2227.20
56436;DHT22;42335;44.872;20.658;2023-02-28T09:00:52;102.70;2227.20
56436;DHT22;42335;44.872;20.658;2023-02-28T09:03:19;102.70;2227.20
56436;DHT22;42335;44.872;20.658;2023-02-28T09:05:55;102.70;2227.20
56436;DHT22;42335;44.872;20.658;2023-02-28T09:08:22;102.70;2227.20
56436;DHT22;42335;44.872;20.658;2023-02-28T09:10:48;102.70;2227.20
56436;DHT22;42335;44.872;20.658;2023-02-28T09:13:14;102.70;2227.20
56436;DHT22;42335;44.872;20.658;2023-02-28T09:15:39;102.80;2227.20
56436;DHT22;42335;44.872;20.658;2023-02-28T09:18:05;102.80;2227.20
56436;DHT22;42335;44.872;20.658;2023-02-28T09:20:31;102.80;2227.20
56436;DHT22;42335;44.872;20.658;2023-02-28T09:22:56;102.80;2227.20
56436;DHT22;42335;44.872;20.658;2023-02-28T09:25:23;102.80;2227.20
56436;DHT22;42335;44.872;20.658;2023-02-28T09:27:49;102.80;2227.20
56436;DHT22;42335;44.872;20.658;2023-02-28T09:30:15;102.70;2227.20
56436;DHT22;42335;44.872;20.658;2023-02-28T09:32:41;102.80;2227.20
56436;DHT22;42335;44.872;20.658;2023-02-28T09:35:07;102.80;2227.20
56436;DHT22;42335;44.872;20.658;2023-02-28T09:37:38;102.80;2227.20
56436;DHT22;42335;44.872;20.658;2023-02-28T09:40:05;102.70;2227.20
56436;DHT22;42335;44.872;20.658;2023-02-28T09:42:32;102.80;2227.20
56436;DHT22;42335;44.872;20.658;2023-02-28T09:45:11;102.90;2227.20
56436;DHT22;42335;44.872;20.658;2023-02-28T09:47:44;103.00;2227.20
56436;DHT22;42335;44.872;20.658;2023-02-28T09:50:29;103.00;2227.20
56436;DHT22;42335;44.872;20.658;2023-02-28T09:52:59;103.00;2227.20
56436;DHT22;42335;44.872;20.658;2023-02-28T09:56:04;103.00;2227.20
56436;DHT22;42335;44.872;20.658;2023-02-28T09:58:59;103.00;2227.20
56436;DHT22;42335;44.872;20.658;2023-02-28T10:01:39;103.00;2227.20
56436;DHT22;42335;44.872;20.658;2023-02-28T10:04:46;103.10;2227.20
56436;DHT22;42335;44.872;20.658;2023-02-28T10:09:46;103.10;2227.20
56436;DHT22;42335;44.872;20.658;2023-02-28T10:12:16;103.10;2227.20
56436;DHT22;42335;44.872;20.658;2023-02-28T10:14:45;103.20;2227.20
56436;DHT22;42335;44.872;20.658;2023-02-28T10:17:15;103.20;2227.20
56436;DHT22;42335;44.872;20.658;2023-02-28T10:19:58;103.20;2227.20
56436;DHT22;42335;44.872;20.658;2023-02-28T10:25:28;103.20;2227.20
56436;DHT22;42335;44.872;20.658;2023-02-28T10:28:00;103.30;2227.20
56436;DHT22;42335;44.872;20.658;2023-02-28T10:30:27;103.30;2227.20
56436;DHT22;42335;44.872;20.658;2023-02-28T10:32:53;103.30;2227.20
56436;DHT22;42335;44.872;20.658;2023-02-28T10:35:25;128.00;2252.80
56436;DHT22;42335;44.872;20.658;2023-02-28T10:37:57;128.00;2252.80
56436;DHT22;42335;44.872;20.658;2023-02-28T10:43:03;128.10;2252.80
56436;DHT22;42335;44.872;20.658;2023-02-28T10:45:33;128.00;2252.80
56436;DHT22;42335;44.872;20.658;2023-02-28T10:48:06;128.00;2252.80
56436;DHT22;42335;44.872;20.658;2023-02-28T10:50:51;103.30;2227.20
56436;DHT22;42335;44.872;20.658;2023-02-28T10:58:33;103.20;2227.20
56436;DHT22;42335;44.872;20.658;2023-02-28T11:01:55;103.20;2227.20
56436;DHT22;42335;44.872;20.658;2023-02-28T11:06:42;128.10;2252.80
56436;DHT22;42335;44.872;20.658;2023-02-28T11:09:24;128.00;2252.80
56436;DHT22;42335;44.872;20.658;2023-02-28T11:11:52;103.20;2227.20
56436;DHT22;42335;44.872;20.658;2023-02-28T11:14:25;103.20;2227.20
56436;DHT22;42335;44.872;20.658;2023-02-28T11:16:52;103.10;2227.20
56436;DHT22;42335;44.872;20.658;2023-02-28T11:19:28;103.30;2227.20
56436;DHT22;42335;44.872;20.658;2023-02-28T11:21:59;128.00;2252.80
56436;DHT22;42335;44.872;20.658;2023-02-28T11:24:40;128.10;2252.80
56436;DHT22;42335;44.872;20.658;2023-02-28T11:27:26;128.20;2252.80
56436;DHT22;42335;44.872;20.658;2023-02-28T11:32:49;128.30;2252.80
56436;DHT22;42335;44.872;20.658;2023-02-28T11:35:31;128.20;2252.80
56436;DHT22;42335;44.872;20.658;2023-02-28T11:38:00;128.20;2252.80
56436;DHT22;42335;44.872;20.658;2023-02-28T11:40:42;128.20;2252.80
56436;DHT22;42335;44.872;20.658;2023-02-28T11:43:30;128.10;2252.80
56436;DHT22;42335;44.872;20.658;2023-02-28T11:48:51;128.20;2252.80
56436;DHT22;42335;44.872;20.658;2023-02-28T11:57:03;128.10;2252.80
56436;DHT22;42335;44.872;20.658;2023-02-28T12:11:09;128.00;2252.80
56436;DHT22;42335;44.872;20.658;2023-02-28T12:16:53;128.10;2252.80
56436;DHT22;42335;44.872;20.658;2023-02-28T12:22:32;103.30;2227.20
56436;DHT22;42335;44.872;20.658;2023-02-28T12:27:41;103.30;2227.20
56436;DHT22;42335;44.872;20.658;2023-02-28T12:30:22;103.30;2227.20
56436;DHT22;42335;44.872;20.658;2023-02-28T12:33:09;103.30;2227.20
56436;DHT22;42335;44.872;20.658;2023-02-28T12:35:52;103.30;2227.20
56436;DHT22;42335;44.872;20.658;2023-02-28T12:38:38;103.30;2227.20
56436;DHT22;42335;44.872;20.658;2023-02-28T12:41:42;103.20;2227.20
56436;DHT22;42335;44.872;20.658;2023-02-28T12:44:11;103.20;2227.20
56436;DHT22;42335;44.872;20.658;2023-02-28T12:47:00;103.30;2227.20
56436;DHT22;42335;44.872;20.658;2023-02-28T12:49:41;103.20;2227.20
56436;DHT22;42335;44.872;20.658;2023-02-28T12:52:11;103.30;2227.20
56436;DHT22;42335;44.872;20.658;2023-02-28T12:55:12;128.00;2252.80
56436;DHT22;42335;44.872;20.658;2023-02-28T12:58:01;128.20;2252.80
56436;DHT22;42335;44.872;20.658;2023-02-28T13:00:36;128.20;2252.80
56436;DHT22;42335;44.872;20.658;2023-02-28T13:09:02;128.10;2252.80
56436;DHT22;42335;44.872;20.658;2023-02-28T13:11:44;128.00;2252.80
56436;DHT22;42335;44.872;20.658;2023-02-28T13:19:20;128.00;2252.80
56436;DHT22;42335;44.872;20.658;2023-02-28T13:21:48;128.10;2252.80
56436;DHT22;42335;44.872;20.658;2023-02-28T13:29:37;128.20;2252.80
56436;DHT22;42335;44.872;20.658;2023-02-28T13:37:44;128.20;2252.80
56436;DHT22;42335;44.872;20.658;2023-02-28T13:42:52;128.20;2252.80
56436;DHT22;42335;44.872;20.658;2023-02-28T13:48:01;128.30;2252.80
56436;DHT22;42335;44.872;20.658;2023-02-28T14:06:28;128.40;2252.80
56436;DHT22;42335;44.872;20.658;2023-02-28T14:08:57;128.40;2252.80
56436;DHT22;42335;44.872;20.658;2023-02-28T14:11:33;128.50;2252.80
56436;DHT22;42335;44.872;20.658;2023-02-28T14:13:59;128.40;2252.80
56436;DHT22;42335;44.872;20.658;2023-02-28T14:16:45;128.30;2252.80
56436;DHT22;42335;44.872;20.658;2023-02-28T14:19:15;128.30;2252.80
56436;DHT22;42335;44.872;20.658;2023-02-28T14:22:12;128.20;2252.80
56436;DHT22;42335;44.872;20.658;2023-02-28T14:25:22;128.20;2252.80
56436;DHT22;42335;44.872;20.658;2023-02-28T14:27:54;128.00;2252.80
56436;DHT22;42335;44.872;20.658;2023-02-28T14:30:45;128.00;2252.80
56436;DHT22;42335;44.872;20.658;2023-02-28T14:38:23;128.00;2252.80
56436;DHT22;42335;44.872;20.658;2023-02-28T14:40:52;128.10;2252.80
56436;DHT22;42335;44.872;20.658;2023-02-28T14:43:25;128.00;2252.80
56436;DHT22;42335;44.872;20.658;2023-02-28T14:45:57;128.10;2252.80
56436;DHT22;42335;44.872;20.658;2023-02-28T14:48:24;103.30;2227.20
56436;DHT22;42335;44.872;20.658;2023-02-28T14:50:54;128.00;2252.80
56436;DHT22;42335;44.872;20.658;2023-02-28T14:53:23;128.20;2252.80
56436;DHT22;42335;44.872;20.658;2023-02-28T14:55:50;128.10;2252.80
56436;DHT22;42335;44.872;20.658;2023-02-28T14:58:31;128.10;2252.80
56436;DHT22;42335;44.872;20.658;2023-02-28T15:01:00;103.30;2227.20
56436;DHT22;42335;44.872;20.658;2023-02-28T15:06:03;128.10;2252.80
56436;DHT22;42335;44.872;20.658;2023-02-28T15:08:29;128.20;2252.80
56436;DHT22;42335;44.872;20.658;2023-02-28T15:11:06;128.20;2252.80
56436;DHT22;42335;44.872;20.658;2023-02-28T15:13:48;128.30;2252.80
56436;DHT22;42335;44.872;20.658;2023-02-28T15:16:35;128.20;2252.80
56436;DHT22;42335;44.872;20.658;2023-02-28T15:19:08;128.20;2252.80
56436;DHT22;42335;44.872;20.658;2023-02-28T15:21:40;128.20;2252.80
56436;DHT22;42335;44.872;20.658;2023-02-28T15:24:17;128.20;2252.80
56436;DHT22;42335;44.872;20.658;2023-02-28T15:27:00;128.20;2252.80
56436;DHT22;42335;44.872;20.658;2023-02-28T15:29:30;128.10;2252.80
56436;DHT22;42335;44.872;20.658;2023-02-28T15:32:04;128.00;2252.80
56436;DHT22;42335;44.872;20.658;2023-02-28T15:34:40;128.10;2252.80
56436;DHT22;42335;44.872;20.658;2023-02-28T15:39:50;128.10;2252.80
56436;DHT22;42335;44.872;20.658;2023-02-28T15:42:22;128.10;2252.80
56436;DHT22;42335;44.872;20.658;2023-02-28T15:44:49;128.10;2252.80
56436;DHT22;42335;44.872;20.658;2023-02-28T15:47:23;128.10;2252.80
56436;DHT22;42335;44.872;20.658;2023-02-28T15:52:28;128.10;2252.80
56436;DHT22;42335;44.872;20.658;2023-02-28T15:54:57;128.00;2252.80
56436;DHT22;42335;44.872;20.658;2023-02-28T15:57:29;128.00;2252.80
56436;DHT22;42335;44.872;20.658;2023-02-28T15:59:57;103.30;2227.20
56436;DHT22;42335;44.872;20.658;2023-02-28T16:02:32;103.30;2227.20
56436;DHT22;42335;44.872;20.658;2023-02-28T16:07:35;103.30;2227.20
56436;DHT22;42335;44.872;20.658;2023-02-28T16:10:01;103.30;2227.20
56436;DHT22;42335;44.872;20.658;2023-02-28T16:12:32;128.00;2252.80
56436;DHT22;42335;44.872;20.658;2023-02-28T16:15:28;103.30;2227.20
56436;DHT22;42335;44.872;20.658;2023-02-28T16:17:53;103.30;2227.20
56436;DHT22;42335;44.872;20.658;2023-02-28T16:20:23;103.30;2227.20
56436;DHT22;42335;44.872;20.658;2023-02-28T16:22:50;103.30;2227.20
56436;DHT22;42335;44.872;20.658;2023-02-28T16:25:18;103.30;2227.20
56436;DHT22;42335;44.872;20.658;2023-02-28T16:27:49;103.30;2227.20
56436;DHT22;42335;44.872;20.658;2023-02-28T16:30:22;103.30;2227.20
56436;DHT22;42335;44.872;20.658;2023-02-28T16:32:49;103.30;2227.20
56436;DHT22;42335;44.872;20.658;2023-02-28T16:35:15;103.30;2227.20
56436;DHT22;42335;44.872;20.658;2023-02-28T16:37:41;103.30;2227.20
56436;DHT22;42335;44.872;20.658;2023-02-28T16:40:19;103.30;2227.20
56436;DHT22;42335;44.872;20.658;2023-02-28T16:42:47;128.00;2252.80
56436;DHT22;42335;44.872;20.658;2023-02-28T16:45:19;128.00;2252.80
56436;DHT22;42335;44.872;20.658;2023-02-28T16:47:46;128.10;2252.80
56436;DHT22;42335;44.872;20.658;2023-02-28T16:52:40;128.10;2252.80
56436;DHT22;42335;44.872;20.658;2023-02-28T16:55:06;128.00;2252.80
56436;DHT22;42335;44.872;20.658;2023-02-28T16:57:31;128.10;2252.80
56436;DHT22;42335;44.872;20.658;2023-02-28T16:59:57;128.10;2252.80
56436;DHT22;42335;44.872;20.658;2023-02-28T17:02:23;128.10;2252.80
56436;DHT22;42335;44.872;20.658;2023-02-28T17:04:48;128.00;2252.80
56436;DHT22;42335;44.872;20.658;2023-02-28T17:07:15;128.00;2252.80
56436;DHT22;42335;44.872;20.658;2023-02-28T17:09:44;128.00;2252.80
56436;DHT22;42335;44.872;20.658;2023-02-28T17:12:10;128.00;2252.80
56436;DHT22;42335;44.872;20.658;2023-02-28T17:14:37;128.00;2252.80
56436;DHT22;42335;44.872;20.658;2023-02-28T17:17:05;103.30;2227.20
56436;DHT22;42335;44.872;20.658;2023-02-28T17:19:30;103.30;2227.20
56436;DHT22;42335;44.872;20.658;2023-02-28T17:21:56;103.30;2227.20
56436;DHT22;42335;44.872;20.658;2023-02-28T17:24:22;103.30;2227.20
56436;DHT22;42335;44.872;20.658;2023-02-28T17:26:48;103.30;2227.20
56436;DHT22;42335;44.872;20.658;2023-02-28T17:29:19;103.30;2227.20
56436;DHT22;42335;44.872;20.658;2023-02-28T17:31:46;103.20;2227.20
56436;DHT22;42335;44.872;20.658;2023-02-28T17:34:12;103.20;2227.20
56436;DHT22;42335;44.872;20.658;2023-02-28T17:36:46;103.20;2227.20
56436;DHT22;42335;44.872;20.658;2023-02-28T17:39:14;103.30;2227.20
56436;DHT22;42335;44.872;20.658;2023-02-28T17:41:41;103.20;2227.20
56436;DHT22;42335;44.872;20.658;2023-02-28T17:44:08;103.30;2227.20